createdAt,value
2019-05-23T00:04:19.083Z,14.98
2019-05-23T00:09:43.356Z,14.84
2019-05-23T00:14:53.453Z,14.75
2019-05-23T00:20:01.238Z,14.81
2019-05-23T00:25:10.512Z,14.91
2019-05-23T00:30:23.856Z,15.01
2019-05-23T00:35:32.078Z,15.03
2019-05-23T00:40:39.506Z,14.88
2019-05-23T00:45:45.488Z,14.95
2019-05-23T00:50:53.128Z,14.83
2019-05-23T00:56:00.516Z,14.91
2019-05-23T01:01:07.419Z,14.76
2019-05-23T01:06:14.384Z,14.51
2019-05-23T01:11:21.664Z,14.60
2019-05-23T01:16:31.418Z,14.46
2019-05-23T01:21:57.459Z,14.73
2019-05-23T01:27:04.992Z,14.77
2019-05-23T01:32:13.131Z,14.75
2019-05-23T01:37:21.207Z,14.45
2019-05-23T01:42:28.714Z,14.57
2019-05-23T01:47:35.866Z,14.59
2019-05-23T01:52:42.489Z,14.45
2019-05-23T01:57:49.496Z,14.21
2019-05-23T02:02:56.286Z,14.11
2019-05-23T02:08:03.126Z,14.22
2019-05-23T02:13:09.144Z,14.10
2019-05-23T02:18:15.544Z,14.15
2019-05-23T02:23:22.830Z,14.40
2019-05-23T02:28:30.438Z,14.23
2019-05-23T02:33:37.005Z,14.29
2019-05-23T02:38:49.653Z,14.17
2019-05-23T02:43:59.011Z,14.16
2019-05-23T02:49:09.593Z,14.12
2019-05-23T02:54:18.421Z,14.30
2019-05-23T02:59:38.125Z,14.34
2019-05-23T03:04:46.336Z,14.15
2019-05-23T03:09:52.519Z,14.22
2019-05-23T03:14:59.502Z,14.26
2019-05-23T03:20:09.159Z,14.25
2019-05-23T03:25:39.441Z,14.37
2019-05-23T03:30:49.892Z,14.23
2019-05-23T03:35:58.337Z,14.22
2019-05-23T03:41:05.914Z,14.20
2019-05-23T03:46:16.391Z,14.31
2019-05-23T03:51:22.260Z,14.25
2019-05-23T03:56:30.276Z,14.23
2019-05-23T04:01:47.755Z,14.41
2019-05-23T04:06:43.874Z,14.53
2019-05-23T04:11:50.265Z,14.61
2019-05-23T04:16:57.747Z,14.50
2019-05-23T04:22:03.818Z,14.52
2019-05-23T04:27:11.019Z,14.30
2019-05-23T04:32:17.937Z,14.54
2019-05-23T04:37:24.088Z,14.41
2019-05-23T04:42:31.014Z,14.44
2019-05-23T04:47:38.599Z,14.71
2019-05-23T04:52:45.132Z,14.99
2019-05-23T04:57:52.515Z,14.78
2019-05-23T05:02:58.476Z,15.05
2019-05-23T05:08:05.298Z,14.73
2019-05-23T05:13:11.616Z,14.60
2019-05-23T05:18:17.933Z,14.45
2019-05-23T05:23:23.992Z,14.72
2019-05-23T05:28:29.976Z,14.77
2019-05-23T05:33:36.135Z,14.80
2019-05-23T05:38:42.904Z,14.84
2019-05-23T05:43:49.280Z,15.02
2019-05-23T05:48:56.064Z,14.99
2019-05-23T05:54:02.192Z,14.88
2019-05-23T06:03:53.410Z,14.67
2019-05-23T06:09:03.803Z,14.48
2019-05-23T06:14:10.565Z,14.58
2019-05-23T06:19:17.761Z,14.72
2019-05-23T06:24:42.379Z,14.61
2019-05-23T06:29:32.371Z,14.81
2019-05-23T06:34:39.629Z,14.87
2019-05-23T06:39:45.549Z,14.63
2019-05-23T06:44:51.869Z,14.32
2019-05-23T06:49:58.237Z,14.20
2019-05-23T06:55:05.809Z,14.13
2019-05-23T07:00:14.237Z,14.26
2019-05-23T07:05:25.518Z,14.64
2019-05-23T07:10:31.800Z,14.67
2019-05-23T07:15:38.016Z,14.56
2019-05-23T07:20:44.817Z,14.25
2019-05-23T07:25:51.360Z,14.12
2019-05-23T07:30:57.946Z,14.21
2019-05-23T07:36:04.438Z,14.41
2019-05-23T07:41:11.015Z,14.22
2019-05-23T07:46:17.808Z,14.61
2019-05-23T07:51:23.876Z,14.44
2019-05-23T07:56:31.944Z,14.50
2019-05-23T08:01:39.317Z,14.39
2019-05-23T08:06:48.795Z,14.41
2019-05-23T08:11:53.187Z,14.53
2019-05-23T08:16:59.667Z,14.65
2019-05-23T08:22:06.480Z,14.80
2019-05-23T08:27:13.154Z,14.77
2019-05-23T08:32:19.556Z,14.61
2019-05-23T08:37:25.708Z,14.94
2019-05-23T08:42:32.171Z,15.12
2019-05-23T08:47:39.181Z,15.50
2019-05-23T08:52:45.621Z,15.15
2019-05-23T08:57:52.436Z,15.48
2019-05-23T09:02:59.383Z,15.03
2019-05-23T09:08:07.161Z,15.84
2019-05-23T09:13:13.957Z,15.78
2019-05-23T09:18:20.126Z,16.28
2019-05-23T09:23:26.925Z,16.72
2019-05-23T09:28:33.394Z,16.70
2019-05-23T09:33:41.235Z,17.67
2019-05-23T09:38:47.782Z,17.29
2019-05-23T09:43:54.488Z,17.35
2019-05-23T09:49:00.461Z,17.64
2019-05-23T09:54:06.883Z,17.49
2019-05-23T09:59:13.519Z,17.64
2019-05-23T10:04:19.496Z,17.18
2019-05-23T10:09:25.577Z,17.44
2019-05-23T10:14:33.226Z,17.37
2019-05-23T10:19:41.145Z,17.83
2019-05-23T10:24:47.587Z,18.01
2019-05-23T10:29:53.954Z,18.00
2019-05-23T10:35:00.249Z,18.14
2019-05-23T10:40:07.165Z,18.67
2019-05-23T10:45:15.457Z,18.85
2019-05-23T10:50:21.978Z,18.85
2019-05-23T10:55:28.533Z,18.78
2019-05-23T11:00:36.265Z,18.49
2019-05-23T11:05:42.301Z,18.51
2019-05-23T11:10:49.720Z,18.39
2019-05-23T11:15:56.911Z,18.82
2019-05-23T11:21:02.881Z,18.88
2019-05-23T11:26:09.726Z,19.10
2019-05-23T11:31:16.949Z,18.74
2019-05-23T11:36:35.516Z,18.68
2019-05-23T11:41:33.166Z,18.46
2019-05-23T11:46:40.126Z,18.38
2019-05-23T11:51:46.394Z,18.32
2019-05-23T11:56:52.723Z,18.29
2019-05-23T12:02:09.807Z,18.40
2019-05-23T12:07:20.277Z,18.29
2019-05-23T12:12:26.859Z,18.16
2019-05-23T12:17:33.847Z,18.05
2019-05-23T12:22:40.354Z,18.08
2019-05-23T12:27:47.039Z,18.39
2019-05-23T12:32:53.194Z,18.42
2019-05-23T12:38:02.423Z,18.72
2019-05-23T12:43:07.188Z,19.17
2019-05-23T12:48:31.189Z,18.90
2019-05-23T12:53:38.272Z,18.99
2019-05-23T12:58:45.481Z,19.09
2019-05-23T13:03:51.457Z,19.09
2019-05-23T13:08:57.724Z,19.24
2019-05-23T13:14:04.063Z,19.85
2019-05-23T13:19:10.288Z,19.14
2019-05-23T13:24:16.562Z,19.36
2019-05-23T13:29:24.559Z,19.03
2019-05-23T13:34:30.757Z,18.63
2019-05-23T13:39:36.891Z,18.41
2019-05-23T13:44:42.909Z,17.96
2019-05-23T13:49:49.077Z,18.02
2019-05-23T13:54:55.312Z,17.79
2019-05-23T14:00:01.662Z,17.49
2019-05-23T14:05:09.484Z,17.50
2019-05-23T14:10:16.558Z,17.40
2019-05-23T14:15:24.366Z,17.33
2019-05-23T14:20:30.199Z,17.18
2019-05-23T14:25:36.929Z,16.93
2019-05-23T14:30:45.507Z,17.05
2019-05-23T14:35:53.076Z,16.83
2019-05-23T14:40:59.897Z,16.96
2019-05-23T14:46:07.981Z,16.96
2019-05-23T14:51:29.785Z,16.85
2019-05-23T14:56:40.494Z,17.05
2019-05-23T15:01:47.090Z,17.65
2019-05-23T15:06:53.162Z,17.75
2019-05-23T15:11:59.428Z,17.71
2019-05-23T15:17:05.981Z,17.77
2019-05-23T15:22:12.394Z,17.42
2019-05-23T15:27:18.668Z,17.34
2019-05-23T15:32:25.125Z,17.17
2019-05-23T15:37:31.222Z,16.67
2019-05-23T15:42:37.295Z,16.79
2019-05-23T15:47:43.622Z,16.57
2019-05-23T15:52:53.947Z,16.34
2019-05-23T15:58:02.637Z,16.17
2019-05-23T16:03:13.812Z,16.11
2019-05-23T16:08:18.944Z,16.15
2019-05-23T16:13:26.264Z,16.06
2019-05-23T16:18:33.330Z,16.00
2019-05-23T16:23:41.049Z,15.93
2019-05-23T16:28:47.020Z,15.79
2019-05-23T16:33:55.208Z,15.72
2019-05-23T16:39:01.611Z,15.80
2019-05-23T16:44:08.277Z,15.64
2019-05-23T16:49:15.118Z,15.55
2019-05-23T16:54:22.783Z,15.51
2019-05-23T16:59:39.534Z,15.49
2019-05-23T17:04:47.114Z,15.47
2019-05-23T17:10:11.247Z,15.53
2019-05-23T17:15:25.422Z,15.66
2019-05-23T17:20:33.856Z,15.51
2019-05-23T17:25:57.510Z,15.55
2019-05-23T17:31:05.340Z,15.49
2019-05-23T17:36:11.727Z,15.43
2019-05-23T17:41:19.213Z,15.36
2019-05-23T17:46:25.422Z,15.53
2019-05-23T17:51:32.106Z,15.46
2019-05-23T17:56:38.452Z,15.37
2019-05-23T18:01:45.362Z,15.39
2019-05-23T18:06:51.802Z,15.32
2019-05-23T18:11:58.370Z,15.23
2019-05-23T18:17:04.688Z,15.23
2019-05-23T18:22:12.916Z,15.20
2019-05-23T18:27:19.196Z,15.13
2019-05-23T18:32:27.446Z,15.03
2019-05-23T18:37:33.763Z,15.09
2019-05-23T18:42:41.304Z,15.05
2019-05-23T18:47:48.118Z,14.96
2019-05-23T18:52:54.313Z,14.90
2019-05-23T18:58:00.556Z,14.84
2019-05-23T19:03:06.631Z,14.81
2019-05-23T19:08:12.647Z,14.78
2019-05-23T19:13:19.384Z,14.77
2019-05-23T19:18:26.358Z,14.75
2019-05-23T19:23:32.756Z,14.79
2019-05-23T19:28:39.652Z,14.69
2019-05-23T19:33:46.148Z,14.70
2019-05-23T19:38:52.135Z,14.75
2019-05-23T19:43:58.106Z,14.81
2019-05-23T19:49:04.405Z,14.87
2019-05-23T19:54:10.741Z,14.89
2019-05-23T19:59:20.803Z,14.85
2019-05-23T20:04:31.124Z,14.78
2019-05-23T20:09:35.636Z,14.82
2019-05-23T20:14:41.791Z,14.80
2019-05-23T20:19:50.375Z,14.77
2019-05-23T20:24:55.564Z,14.57
2019-05-23T20:30:01.548Z,14.31
2019-05-23T20:35:08.247Z,14.39
2019-05-23T20:40:14.507Z,14.42
2019-05-23T20:45:20.678Z,14.34
2019-05-23T20:50:26.767Z,14.26
2019-05-23T20:55:32.779Z,14.14
2019-05-23T21:00:44.019Z,14.03
2019-05-23T21:05:49.886Z,14.13
2019-05-23T21:10:55.874Z,13.93
2019-05-23T21:16:01.834Z,13.90
2019-05-23T21:21:07.709Z,13.69
2019-05-23T21:26:13.870Z,13.51
2019-05-23T21:31:21.477Z,13.65
2019-05-23T21:36:27.557Z,13.76
2019-05-23T21:41:33.421Z,13.67
2019-05-23T21:46:39.392Z,13.64
2019-05-23T21:51:45.262Z,13.68
2019-05-23T21:56:51.030Z,13.66
2019-05-23T22:01:58.531Z,13.62
2019-05-23T22:07:04.616Z,13.67
2019-05-23T22:12:12.734Z,13.65
2019-05-23T22:17:20.343Z,13.69
2019-05-23T22:22:26.410Z,13.67
2019-05-23T22:27:32.380Z,13.36
2019-05-23T22:32:38.356Z,13.16
2019-05-23T22:37:44.934Z,12.96
2019-05-23T22:42:50.916Z,13.02
2019-05-23T22:47:56.982Z,13.11
2019-05-23T22:53:02.953Z,13.13
2019-05-23T22:58:10.154Z,13.12
2019-05-23T23:03:16.225Z,13.18
2019-05-23T23:08:23.178Z,13.03
2019-05-23T23:13:38.096Z,13.02
2019-05-23T23:18:36.805Z,13.00
2019-05-23T23:23:42.673Z,12.85
2019-05-23T23:28:48.946Z,12.82
2019-05-23T23:33:55.023Z,12.99
2019-05-23T23:39:01.199Z,12.88
2019-05-23T23:44:08.884Z,12.63
2019-05-23T23:49:32.183Z,12.67
2019-05-23T23:54:56.073Z,12.57
